createdAt,value
2018-12-08T00:00:35.574Z,98.14
2018-12-08T00:03:01.686Z,98.01
2018-12-08T00:05:27.852Z,98.11
2018-12-08T00:07:53.986Z,98.04
2018-12-08T00:10:20.120Z,98.48
2018-12-08T00:12:46.248Z,98.22
2018-12-08T00:15:12.396Z,97.88
2018-12-08T00:17:38.538Z,98.05
2018-12-08T00:20:04.927Z,98.16
2018-12-08T00:22:31.075Z,97.97
2018-12-08T00:24:57.211Z,98.14
2018-12-08T00:27:23.337Z,98.18
2018-12-08T00:29:49.477Z,97.99
2018-12-08T00:32:15.600Z,97.75
2018-12-08T00:34:41.727Z,97.74
2018-12-08T00:37:07.867Z,97.70
2018-12-08T00:39:33.991Z,98.03
2018-12-08T00:42:00.131Z,97.63
2018-12-08T00:44:26.249Z,97.72
2018-12-08T00:46:52.392Z,97.95
2018-12-08T00:49:18.511Z,98.25
2018-12-08T00:51:44.754Z,97.90
2018-12-08T00:54:10.895Z,97.79
2018-12-08T00:56:37.031Z,97.88
2018-12-08T00:59:03.187Z,97.69
2018-12-08T01:01:29.321Z,98.03
2018-12-08T01:03:55.453Z,98.06
2018-12-08T01:06:21.592Z,97.99
2018-12-08T01:08:47.715Z,98.00
2018-12-08T01:11:13.856Z,98.10
2018-12-08T01:13:39.992Z,97.99
2018-12-08T01:16:06.150Z,97.70
2018-12-08T01:18:32.276Z,97.88
2018-12-08T01:20:58.431Z,97.82
2018-12-08T01:23:24.551Z,97.92
2018-12-08T01:25:50.679Z,97.93
2018-12-08T01:28:16.796Z,97.85
2018-12-08T01:30:42.920Z,97.97
2018-12-08T01:33:09.187Z,97.77
2018-12-08T01:35:35.314Z,98.04
2018-12-08T01:38:01.535Z,98.03
2018-12-08T01:40:27.705Z,97.94
2018-12-08T01:42:55.686Z,98.14
2018-12-08T01:45:21.800Z,97.69
2018-12-08T01:47:47.980Z,98.07
2018-12-08T01:50:14.103Z,97.94
2018-12-08T01:52:40.212Z,98.04
2018-12-08T01:55:06.355Z,98.10
2018-12-08T01:57:32.479Z,97.89
2018-12-08T01:59:58.590Z,97.90
2018-12-08T02:02:24.721Z,97.72
2018-12-08T02:04:50.834Z,98.07
2018-12-08T02:07:16.955Z,98.11
2018-12-08T02:09:43.074Z,98.16
2018-12-08T02:12:09.195Z,97.95
2018-12-08T02:14:35.310Z,98.17
2018-12-08T02:17:01.427Z,98.29
2018-12-08T02:19:27.662Z,97.99
2018-12-08T02:21:53.758Z,98.15
2018-12-08T02:24:19.870Z,97.78
2018-12-08T02:26:45.982Z,98.15
2018-12-08T02:29:12.122Z,98.09
2018-12-08T02:31:38.291Z,97.99
2018-12-08T02:34:04.643Z,97.84
2018-12-08T02:36:30.759Z,98.13
2018-12-08T02:38:57.008Z,98.11
2018-12-08T02:41:23.143Z,97.93
2018-12-08T02:43:49.274Z,98.25
2018-12-08T02:46:16.550Z,98.18
2018-12-08T02:48:42.843Z,98.14
2018-12-08T02:51:08.956Z,98.11
2018-12-08T02:53:35.099Z,98.17
2018-12-08T02:56:01.233Z,97.92
2018-12-08T02:58:27.356Z,98.11
2018-12-08T03:00:53.466Z,98.20
2018-12-08T03:03:19.596Z,98.15
2018-12-08T03:05:45.720Z,97.97
2018-12-08T03:08:11.847Z,98.19
2018-12-08T03:10:37.974Z,98.01
2018-12-08T03:13:04.094Z,97.99
2018-12-08T03:15:30.247Z,98.25
2018-12-08T03:17:56.365Z,98.09
2018-12-08T03:20:22.502Z,98.01
2018-12-08T03:22:48.631Z,98.10
2018-12-08T03:25:14.783Z,97.93
2018-12-08T03:27:40.897Z,98.03
2018-12-08T03:30:07.303Z,98.00
2018-12-08T03:32:33.432Z,98.25
2018-12-08T03:34:59.566Z,97.95
2018-12-08T03:37:25.674Z,97.81
2018-12-08T03:39:51.817Z,97.89
2018-12-08T03:42:18.058Z,97.90
2018-12-08T03:44:44.182Z,98.20
2018-12-08T03:47:10.295Z,97.90
2018-12-08T03:49:36.420Z,98.27
2018-12-08T03:52:02.554Z,97.95
2018-12-08T03:54:28.680Z,98.47
2018-12-08T03:56:54.797Z,98.27
2018-12-08T03:59:20.924Z,98.38
2018-12-08T04:01:47.043Z,98.30
2018-12-08T04:04:13.158Z,98.21
2018-12-08T04:06:39.279Z,98.62
2018-12-08T04:09:05.403Z,98.56
2018-12-08T04:11:31.526Z,98.33
2018-12-08T04:13:57.662Z,98.36
2018-12-08T04:16:23.791Z,98.17
2018-12-08T04:18:49.898Z,98.31
2018-12-08T04:21:16.033Z,98.01
2018-12-08T04:23:42.143Z,98.30
2018-12-08T04:26:08.286Z,98.17
2018-12-08T04:28:34.402Z,98.23
2018-12-08T04:31:00.531Z,97.99
2018-12-08T04:33:26.667Z,98.05
2018-12-08T04:35:54.657Z,97.84
2018-12-08T04:38:20.924Z,98.07
2018-12-08T04:40:47.042Z,97.87
2018-12-08T04:43:13.147Z,97.99
2018-12-08T04:45:39.267Z,98.00
2018-12-08T04:48:05.369Z,97.72
2018-12-08T04:50:31.510Z,98.20
2018-12-08T04:52:57.618Z,97.87
2018-12-08T04:55:23.726Z,98.26
2018-12-08T04:57:49.875Z,97.87
2018-12-08T05:00:16.026Z,98.22
2018-12-08T05:02:42.168Z,98.05
2018-12-08T05:05:08.313Z,98.28
2018-12-08T05:07:34.446Z,98.23
2018-12-08T05:10:00.546Z,98.17
2018-12-08T05:12:26.672Z,98.49
2018-12-08T05:14:52.838Z,98.48
2018-12-08T05:17:19.066Z,97.90
2018-12-08T05:19:45.167Z,98.25
2018-12-08T05:22:11.305Z,98.11
2018-12-08T05:24:37.426Z,98.14
2018-12-08T05:27:03.563Z,98.00
2018-12-08T05:29:29.663Z,98.39
2018-12-08T05:31:55.778Z,97.92
2018-12-08T05:34:21.898Z,98.28
2018-12-08T05:36:48.039Z,98.26
2018-12-08T05:39:14.154Z,97.89
2018-12-08T05:41:40.298Z,98.06
2018-12-08T05:44:06.408Z,98.10
2018-12-08T05:46:32.534Z,98.18
2018-12-08T05:48:58.654Z,97.92
2018-12-08T05:51:24.772Z,98.07
2018-12-08T05:53:50.894Z,97.85
2018-12-08T05:56:17.035Z,97.91
2018-12-08T05:58:43.155Z,97.78
2018-12-08T06:01:09.278Z,97.91
2018-12-08T06:03:35.418Z,98.20
2018-12-08T06:06:01.536Z,97.93
2018-12-08T06:08:27.643Z,97.75
2018-12-08T06:10:53.748Z,97.80
2018-12-08T06:13:19.870Z,97.87
2018-12-08T06:15:45.984Z,97.66
2018-12-08T06:18:12.127Z,97.83
2018-12-08T06:20:38.252Z,97.62
2018-12-08T06:23:04.370Z,97.64
2018-12-08T06:25:30.642Z,97.97
2018-12-08T06:28:00.918Z,97.77
2018-12-08T06:30:27.051Z,97.78
2018-12-08T06:32:53.176Z,97.89
2018-12-08T06:35:19.439Z,97.99
2018-12-08T06:37:45.566Z,97.90
2018-12-08T06:40:11.687Z,97.73
2018-12-08T06:42:37.805Z,98.02
2018-12-08T06:45:04.586Z,98.06
2018-12-08T06:47:30.719Z,98.01
2018-12-08T06:49:56.838Z,97.60
2018-12-08T06:52:22.974Z,97.89
2018-12-08T06:54:49.234Z,97.77
2018-12-08T06:57:15.379Z,97.83
2018-12-08T06:59:41.486Z,97.84
2018-12-08T07:02:07.610Z,97.69
2018-12-08T07:04:33.745Z,97.55
2018-12-08T07:06:59.875Z,97.71
2018-12-08T07:09:25.999Z,97.87
2018-12-08T07:11:52.201Z,97.71
2018-12-08T07:14:18.375Z,97.64
2018-12-08T07:16:44.518Z,97.83
2018-12-08T07:19:10.742Z,97.74
2018-12-08T07:21:36.854Z,97.78
2018-12-08T07:24:03.035Z,98.04
2018-12-08T07:26:29.182Z,97.89
2018-12-08T07:28:55.292Z,98.19
2018-12-08T07:31:21.431Z,98.09
2018-12-08T07:33:47.551Z,98.03
2018-12-08T07:36:13.680Z,98.19
2018-12-08T07:38:39.795Z,98.11
2018-12-08T07:41:06.044Z,98.43
2018-12-08T07:43:32.162Z,97.95
2018-12-08T07:45:58.283Z,97.85
2018-12-08T07:48:24.398Z,97.94
2018-12-08T07:50:50.651Z,98.07
2018-12-08T07:53:16.783Z,98.20
2018-12-08T07:55:42.946Z,97.91
2018-12-08T07:58:09.095Z,98.27
2018-12-08T08:00:35.223Z,98.44
2018-12-08T08:03:01.351Z,98.06
2018-12-08T08:05:27.495Z,98.03
2018-12-08T08:07:53.615Z,98.22
2018-12-08T08:10:19.773Z,98.24
2018-12-08T08:12:45.882Z,98.06
2018-12-08T08:15:12.275Z,98.32
2018-12-08T08:17:38.394Z,98.42
2018-12-08T08:20:05.682Z,97.95
2018-12-08T08:22:31.826Z,98.35
2018-12-08T08:24:57.937Z,98.23
2018-12-08T08:27:24.078Z,98.08
2018-12-08T08:29:50.209Z,98.27
2018-12-08T08:32:16.352Z,98.39
2018-12-08T08:34:42.619Z,98.31
2018-12-08T08:37:09.617Z,98.50
2018-12-08T08:39:35.897Z,98.37
2018-12-08T08:42:02.029Z,98.35
2018-12-08T08:44:28.148Z,98.68
2018-12-08T08:46:54.292Z,98.67
2018-12-08T08:49:20.410Z,98.56
2018-12-08T08:51:46.528Z,98.90
2018-12-08T08:54:12.687Z,98.91
2018-12-08T08:56:38.815Z,98.51
2018-12-08T08:59:04.954Z,98.83
2018-12-08T09:01:31.087Z,98.60
2018-12-08T09:03:57.235Z,98.79
2018-12-08T09:06:23.379Z,98.75
2018-12-08T09:08:49.511Z,98.60
2018-12-08T09:11:15.661Z,98.71
2018-12-08T09:13:41.792Z,98.77
2018-12-08T09:16:07.947Z,98.82
2018-12-08T09:18:34.091Z,98.71
2018-12-08T09:21:00.226Z,98.76
2018-12-08T09:23:26.352Z,98.75
2018-12-08T09:25:52.487Z,98.93
2018-12-08T09:28:18.642Z,98.87
2018-12-08T09:30:44.775Z,98.76
2018-12-08T09:33:10.899Z,98.73
2018-12-08T09:35:37.051Z,98.71
2018-12-08T09:38:03.219Z,98.79
2018-12-08T09:40:29.367Z,98.61
2018-12-08T09:42:55.515Z,98.75
2018-12-08T09:45:21.691Z,98.67
2018-12-08T09:47:47.827Z,98.81
2018-12-08T09:50:13.949Z,98.43
2018-12-08T09:52:40.107Z,98.83
2018-12-08T09:55:06.358Z,98.66
2018-12-08T09:57:32.500Z,98.47
2018-12-08T09:59:58.638Z,98.71
2018-12-08T10:02:24.775Z,98.66
2018-12-08T10:04:50.882Z,98.79
2018-12-08T10:07:17.015Z,98.93
2018-12-08T10:09:43.155Z,98.81
2018-12-08T10:12:09.290Z,98.64
2018-12-08T10:14:35.438Z,98.97
2018-12-08T10:17:01.565Z,98.99
2018-12-08T10:19:27.706Z,98.76
2018-12-08T10:21:53.855Z,98.90
2018-12-08T10:24:19.997Z,98.64
2018-12-08T10:26:46.122Z,98.58
2018-12-08T10:29:12.286Z,98.51
2018-12-08T10:31:38.439Z,98.63
2018-12-08T10:34:04.619Z,98.69
2018-12-08T10:36:30.803Z,98.59
2018-12-08T10:38:56.953Z,98.87
2018-12-08T10:41:23.090Z,98.81
2018-12-08T10:43:49.221Z,98.41
2018-12-08T10:46:15.355Z,98.70
2018-12-08T10:48:41.498Z,98.52
2018-12-08T10:51:07.614Z,98.78
2018-12-08T10:53:33.746Z,98.56
2018-12-08T10:55:59.873Z,98.56
2018-12-08T10:58:26.010Z,98.67
2018-12-08T11:00:58.104Z,98.67
2018-12-08T11:03:26.092Z,98.76
2018-12-08T11:05:52.230Z,98.16
2018-12-08T11:08:18.375Z,98.47
2018-12-08T11:10:44.531Z,98.35
2018-12-08T11:13:10.651Z,98.59
2018-12-08T11:15:36.804Z,98.49
2018-12-08T11:18:02.991Z,98.48
2018-12-08T11:20:29.147Z,98.37
2018-12-08T11:22:55.259Z,98.51
2018-12-08T11:25:21.399Z,98.59
2018-12-08T11:27:47.545Z,98.77
2018-12-08T11:30:13.711Z,98.42
2018-12-08T11:32:39.835Z,98.34
2018-12-08T11:35:06.009Z,98.36
2018-12-08T11:37:32.127Z,98.75
2018-12-08T11:39:58.270Z,98.45
2018-12-08T11:42:24.413Z,98.44
2018-12-08T11:44:50.912Z,98.57
2018-12-08T11:47:17.085Z,98.80
2018-12-08T11:49:43.248Z,98.44
2018-12-08T11:52:09.389Z,98.72
2018-12-08T11:54:35.526Z,98.62
2018-12-08T11:57:01.672Z,98.62
2018-12-08T11:59:27.823Z,98.55
2018-12-08T12:01:53.984Z,98.76
2018-12-08T12:04:20.121Z,98.46
2018-12-08T12:06:46.266Z,98.53
2018-12-08T12:09:12.423Z,98.39
2018-12-08T12:11:38.744Z,98.75
2018-12-08T12:14:04.893Z,98.62
2018-12-08T12:16:31.021Z,98.53
2018-12-08T12:18:57.155Z,98.71
2018-12-08T12:21:23.316Z,98.61
2018-12-08T12:23:49.459Z,98.79
2018-12-08T12:26:15.621Z,98.66
2018-12-08T12:28:41.769Z,98.76
2018-12-08T12:31:07.923Z,99.05
2018-12-08T12:33:34.055Z,98.96
2018-12-08T12:36:00.186Z,99.06
2018-12-08T12:38:26.301Z,99.09
2018-12-08T12:40:52.427Z,99.04
2018-12-08T12:43:18.644Z,99.05
2018-12-08T12:45:44.774Z,99.20
2018-12-08T12:48:10.939Z,99.17
2018-12-08T12:50:37.188Z,99.00
2018-12-08T12:53:03.345Z,99.22
2018-12-08T12:55:29.484Z,99.21
2018-12-08T12:57:55.623Z,99.25
2018-12-08T13:00:21.809Z,99.12
2018-12-08T13:02:47.991Z,99.32
2018-12-08T13:05:14.131Z,99.33
2018-12-08T13:07:40.275Z,99.36
2018-12-08T13:10:06.678Z,99.42
2018-12-08T13:12:32.842Z,99.40
2018-12-08T13:14:58.976Z,99.41
2018-12-08T13:17:25.115Z,99.27
2018-12-08T13:19:51.249Z,99.26
2018-12-08T13:22:17.415Z,99.30
2018-12-08T13:24:43.532Z,99.45
2018-12-08T13:27:09.670Z,99.21
2018-12-08T13:29:35.791Z,99.21
2018-12-08T13:32:01.931Z,99.12
2018-12-08T13:34:28.204Z,99.62
2018-12-08T13:36:54.371Z,99.39
2018-12-08T13:39:20.514Z,99.18
2018-12-08T13:41:46.691Z,99.25
2018-12-08T13:44:25.224Z,99.62
2018-12-08T13:46:51.392Z,99.58
2018-12-08T13:49:17.915Z,99.53
2018-12-08T13:51:44.053Z,99.61
2018-12-08T13:54:14.268Z,99.20
2018-12-08T13:56:40.419Z,99.63
2018-12-08T13:59:06.647Z,99.12
2018-12-08T14:01:32.835Z,99.57
2018-12-08T14:03:59.016Z,99.23
2018-12-08T14:06:25.294Z,99.30
2018-12-08T14:08:51.448Z,99.29
2018-12-08T14:11:17.587Z,99.56
2018-12-08T14:13:43.761Z,99.52
2018-12-08T14:16:09.959Z,99.44
2018-12-08T14:18:36.114Z,99.40
2018-12-08T14:21:02.275Z,99.42
2018-12-08T14:23:28.431Z,99.32
2018-12-08T14:25:54.579Z,99.52
2018-12-08T14:28:20.992Z,99.60
2018-12-08T14:30:47.142Z,99.43
2018-12-08T14:33:15.249Z,99.79
2018-12-08T14:35:41.455Z,99.48
2018-12-08T14:38:07.625Z,99.22
2018-12-08T14:40:33.795Z,99.61
2018-12-08T14:42:59.920Z,99.61
2018-12-08T14:45:26.075Z,99.63
2018-12-08T14:47:52.245Z,99.30
2018-12-08T14:50:18.399Z,99.42
2018-12-08T14:52:44.526Z,99.78
2018-12-08T14:55:10.742Z,99.35
2018-12-08T14:57:36.904Z,99.73
2018-12-08T15:00:05.551Z,99.43
2018-12-08T15:02:31.737Z,99.41
2018-12-08T15:04:58.025Z,99.59
2018-12-08T15:07:24.177Z,99.69
2018-12-08T15:09:50.340Z,99.41
2018-12-08T15:12:16.493Z,99.39
2018-12-08T15:14:42.628Z,99.79
2018-12-08T15:17:08.787Z,99.43
2018-12-08T15:19:34.968Z,99.76
2018-12-08T15:22:01.280Z,99.62
2018-12-08T15:24:27.478Z,99.34
2018-12-08T15:26:53.633Z,99.62
2018-12-08T15:29:19.765Z,99.57
2018-12-08T15:31:45.944Z,99.75
2018-12-08T15:34:12.085Z,99.60
2018-12-08T15:36:38.253Z,99.57
2018-12-08T15:39:05.263Z,99.37
2018-12-08T15:41:31.443Z,99.49
2018-12-08T15:43:57.568Z,99.35
2018-12-08T15:46:23.761Z,99.73
2018-12-08T15:48:49.895Z,99.40
2018-12-08T15:51:16.071Z,99.74
2018-12-08T15:53:42.219Z,99.82
2018-12-08T15:56:08.354Z,99.88
2018-12-08T15:58:34.535Z,99.76
2018-12-08T16:01:00.703Z,99.75
2018-12-08T16:03:26.907Z,99.75
2018-12-08T16:05:53.087Z,100.00
2018-12-08T16:08:19.305Z,99.58
2018-12-08T16:10:45.445Z,99.60
2018-12-08T16:13:11.624Z,99.82
2018-12-08T16:15:37.787Z,99.78
2018-12-08T16:18:04.044Z,99.60
2018-12-08T16:20:30.229Z,99.53
2018-12-08T16:22:56.419Z,99.58
2018-12-08T16:25:22.600Z,99.79
2018-12-08T16:27:48.834Z,99.66
2018-12-08T16:30:15.190Z,99.54
2018-12-08T16:32:41.438Z,99.81
2018-12-08T16:35:07.838Z,99.61
2018-12-08T16:37:34.015Z,99.75
2018-12-08T16:40:00.172Z,99.73
2018-12-08T16:42:26.935Z,99.54
2018-12-08T16:44:53.119Z,99.66
2018-12-08T16:47:19.356Z,99.96
2018-12-08T16:49:45.559Z,99.87
2018-12-08T16:52:11.793Z,99.96
2018-12-08T16:54:38.081Z,99.95
2018-12-08T16:57:04.251Z,99.61
2018-12-08T16:59:30.442Z,99.94
2018-12-08T17:01:56.619Z,99.83
2018-12-08T17:04:22.775Z,99.80
2018-12-08T17:06:48.947Z,99.86
2018-12-08T17:09:15.100Z,100.00
2018-12-08T17:11:41.312Z,99.91
2018-12-08T17:14:07.481Z,99.74
2018-12-08T17:16:33.729Z,99.98
2018-12-08T17:19:00.019Z,100.00
2018-12-08T17:21:26.181Z,99.88
2018-12-08T17:23:52.371Z,99.89
2018-12-08T17:26:24.530Z,100.00
2018-12-08T17:28:57.311Z,99.84
2018-12-08T17:31:23.500Z,100.00
2018-12-08T17:33:49.677Z,100.00
2018-12-08T17:36:19.187Z,100.00
2018-12-08T17:38:45.389Z,100.00
2018-12-08T17:41:17.607Z,99.99
2018-12-08T17:43:50.047Z,99.87
2018-12-08T17:46:16.239Z,100.00
2018-12-08T17:48:57.943Z,99.99
2018-12-08T17:51:32.200Z,100.00
2018-12-08T17:54:08.465Z,100.00
2018-12-08T17:56:44.845Z,99.94
2018-12-08T17:59:17.259Z,99.84
2018-12-08T18:01:43.460Z,99.79
2018-12-08T18:04:15.647Z,100.00
2018-12-08T18:06:52.229Z,99.92
2018-12-08T18:09:28.729Z,100.00
2018-12-08T18:12:05.340Z,100.00
2018-12-08T18:14:39.937Z,99.94
2018-12-08T18:17:06.091Z,99.97
2018-12-08T18:19:45.117Z,100.00
2018-12-08T18:22:15.189Z,100.00
2018-12-08T18:27:54.217Z,99.75
2018-12-08T18:30:27.456Z,99.70
2018-12-08T18:33:04.224Z,99.77
2018-12-08T18:35:37.307Z,99.87
2018-12-08T18:38:10.199Z,99.99
2018-12-08T18:40:43.096Z,99.94
2018-12-08T18:43:15.763Z,99.64
2018-12-08T18:45:47.803Z,99.91
2018-12-08T18:48:20.563Z,99.70
2018-12-08T18:50:53.463Z,99.94
2018-12-08T18:53:30.063Z,99.63
2018-12-08T18:56:02.568Z,99.78
2018-12-08T18:58:29.120Z,99.64
2018-12-08T19:01:01.732Z,99.84
2018-12-08T19:03:34.595Z,100.00
2018-12-08T19:06:11.478Z,99.96
2018-12-08T19:08:43.531Z,99.98
2018-12-08T19:11:15.809Z,99.58
2018-12-08T19:13:52.459Z,99.91
2018-12-08T19:16:27.370Z,99.64
2018-12-08T19:18:59.503Z,99.74
2018-12-08T19:21:32.311Z,99.74
2018-12-08T19:24:08.287Z,99.72
2018-12-08T19:26:44.299Z,100.00
2018-12-08T19:29:16.258Z,99.81
2018-12-08T19:31:53.004Z,100.00
2018-12-08T19:34:24.982Z,99.92
2018-12-08T19:37:01.829Z,99.77
2018-12-08T19:39:34.133Z,99.74
2018-12-08T19:42:06.918Z,99.68
2018-12-08T19:44:40.284Z,99.88
2018-12-08T19:47:16.516Z,99.98
2018-12-08T19:49:49.455Z,100.00
2018-12-08T19:52:22.496Z,100.00
2018-12-08T19:54:54.637Z,99.88
2018-12-08T19:57:27.491Z,100.00
2018-12-08T19:59:57.407Z,99.81
2018-12-08T20:02:37.102Z,99.94
2018-12-08T20:05:10.088Z,99.93
2018-12-08T20:07:45.073Z,100.00
2018-12-08T20:10:17.916Z,99.83
2018-12-08T20:12:52.035Z,99.88
2018-12-08T20:15:24.964Z,100.00
2018-12-08T20:18:01.031Z,100.00
2018-12-08T20:20:34.013Z,100.00
2018-12-08T20:23:06.909Z,100.00
2018-12-08T20:25:42.928Z,99.87
2018-12-08T20:28:19.059Z,100.00
2018-12-08T20:30:55.867Z,100.00
2018-12-08T20:33:28.590Z,100.00
2018-12-08T20:36:01.284Z,100.00
2018-12-08T20:38:36.189Z,100.00
2018-12-08T20:41:08.148Z,100.00
2018-12-08T20:43:40.743Z,99.78
2018-12-08T20:46:17.557Z,99.85
2018-12-08T20:48:49.815Z,99.98
2018-12-08T20:51:22.805Z,100.00
2018-12-08T20:53:56.375Z,99.81
2018-12-08T20:56:28.660Z,100.00
2018-12-08T20:59:01.128Z,99.57
2018-12-08T21:01:33.955Z,100.00
2018-12-08T21:04:06.946Z,100.00
2018-12-08T21:06:43.729Z,99.85
2018-12-08T21:09:17.304Z,100.00
2018-12-08T21:11:51.147Z,100.00
2018-12-08T21:14:25.349Z,100.00
2018-12-08T21:16:58.505Z,99.88
2018-12-08T21:19:31.437Z,99.85
2018-12-08T21:22:05.143Z,100.00
2018-12-08T21:24:38.155Z,100.00
2018-12-08T21:27:11.879Z,100.00
2018-12-08T21:29:44.815Z,100.00
2018-12-08T21:32:17.655Z,100.00
2018-12-08T21:34:51.005Z,100.00
2018-12-08T21:37:28.806Z,99.86
2018-12-08T21:40:07.809Z,99.86
2018-12-08T21:42:50.114Z,100.00
2018-12-08T21:45:21.433Z,99.92
2018-12-08T21:47:52.464Z,100.00
2018-12-08T21:50:25.727Z,100.00
2018-12-08T21:52:59.578Z,99.90
2018-12-08T21:55:30.467Z,100.00
2018-12-08T21:58:04.204Z,99.99
2018-12-08T22:00:37.806Z,99.88
2018-12-08T22:03:11.548Z,100.00
2018-12-08T22:05:49.001Z,99.92
2018-12-08T22:11:29.872Z,100.00
2018-12-08T22:13:56.047Z,100.00
2018-12-08T22:16:22.236Z,100.00
2018-12-08T22:18:48.448Z,100.00
2018-12-08T22:21:14.638Z,100.00
2018-12-08T22:23:42.610Z,100.00
2018-12-08T22:26:08.761Z,100.00
2018-12-08T22:28:34.891Z,100.00
2018-12-08T22:31:01.066Z,99.98
2018-12-08T22:33:27.222Z,100.00
2018-12-08T22:35:53.385Z,99.91
2018-12-08T22:38:19.536Z,100.00
2018-12-08T22:43:48.610Z,100.00
2018-12-08T22:46:27.965Z,100.00
2018-12-08T22:48:54.130Z,100.00
2018-12-08T22:51:20.304Z,99.95
2018-12-08T22:53:46.463Z,100.00
2018-12-08T22:56:12.645Z,100.00
2018-12-08T22:58:38.787Z,100.00
2018-12-08T23:01:05.089Z,100.00
2018-12-08T23:03:31.253Z,100.00
2018-12-08T23:05:57.411Z,100.00
2018-12-08T23:08:23.550Z,100.00
2018-12-08T23:10:49.701Z,100.00
2018-12-08T23:13:15.847Z,100.00
2018-12-08T23:15:41.978Z,99.93
2018-12-08T23:18:08.261Z,100.00
2018-12-08T23:20:34.419Z,100.00
2018-12-08T23:23:00.578Z,100.00
2018-12-08T23:25:26.757Z,99.95
2018-12-08T23:27:52.919Z,100.00
2018-12-08T23:30:19.064Z,100.00
2018-12-08T23:32:45.227Z,100.00
2018-12-08T23:35:11.645Z,99.81
2018-12-08T23:37:37.924Z,99.77
2018-12-08T23:40:04.873Z,99.82
2018-12-08T23:42:31.039Z,100.00
2018-12-08T23:44:57.197Z,100.00
2018-12-08T23:47:23.396Z,100.00
2018-12-08T23:49:49.543Z,100.00
2018-12-08T23:52:15.721Z,100.00
2018-12-08T23:54:41.876Z,99.97
2018-12-08T23:57:08.059Z,100.00
2018-12-08T23:59:34.207Z,100.00
